Time;durP1;ratioP1;P1;durP2;ratioP2;P2;SDS_P1;SDS_P2;PMS_P1;PMS_P2;Temp;Humidity;BMP_temperature;BMP_pressure;BME280_temperature;BME280_humidity;BME280_pressure;Samples;Min_cycle;Max_cycle;Signal;HPM_P1;HPM_P2
2023/02/09 00:01:20;;;;;;;107.32;96.02;;;;;;;-6.29;81.97;102851.72;1821427;78;25362;-46
2023/02/09 00:03:48;;;;;;;106.43;94.95;;;;;;;-6.29;81.80;102851.23;1824568;78;25558;-46
2023/02/09 00:06:19;;;;;;;110.10;97.97;;;;;;;-6.27;82.15;102855.05;1824579;78;25535;-49
2023/02/09 00:08:46;;;;;;;112.37;99.60;;;;;;;-6.29;81.76;102851.72;1821414;78;28394;-46
2023/02/09 00:11:21;;;;;;;113.88;97.30;;;;;;;-6.29;81.77;102849.09;1821273;78;25365;-46
2023/02/09 00:13:47;;;;;;;111.80;96.20;;;;;;;-6.32;81.66;102855.94;1823713;78;25357;-46
2023/02/09 00:16:13;;;;;;;110.23;98.40;;;;;;;-6.33;81.83;102850.30;1827366;78;25579;-47
2023/02/09 00:18:39;;;;;;;123.38;98.42;;;;;;;-6.35;81.88;102851.78;1794917;80;25577;-48
2023/02/09 00:21:10;;;;;;;110.27;96.63;;;;;;;-6.35;81.95;102857.05;1827372;78;27508;-47
2023/02/09 00:23:40;;;;;;;119.67;96.47;;;;;;;-6.35;81.93;102857.05;1827578;78;25492;-50
2023/02/09 00:26:11;;;;;;;111.47;99.53;;;;;;;-6.37;81.83;102850.23;1827768;78;25372;-48
2023/02/09 00:28:38;;;;;;;108.80;97.60;;;;;;;-6.37;81.58;102852.38;1827709;78;26310;-46
2023/02/09 00:31:10;;;;;;;118.10;100.47;;;;;;;-6.40;81.59;102856.13;1797530;78;25437;-47
2023/02/09 00:33:37;;;;;;;120.20;96.02;;;;;;;-6.42;81.74;102847.99;1827434;78;27550;-48
2023/02/09 00:36:07;;;;;;;120.95;101.92;;;;;;;-6.42;81.56;102855.89;1827326;78;25526;-50
2023/02/09 00:38:36;;;;;;;105.90;93.82;;;;;;;-6.46;81.64;102851.38;1794906;80;25443;-48
2023/02/09 00:41:05;;;;;;;77.47;68.97;;;;;;;-6.46;81.73;102850.06;1827508;78;25631;-48
2023/02/09 00:43:33;;;;;;;88.25;57.98;;;;;;;-6.51;81.33;102839.09;1795067;80;25404;-45
2023/02/09 00:46:00;;;;;;;64.05;24.57;;;;;;;-6.53;81.24;102841.53;1827420;78;27334;-48
2023/02/09 00:48:28;;;;;;;63.25;23.40;;;;;;;-6.57;81.14;102842.28;1794781;80;25884;-47
2023/02/09 00:50:54;;;;;;;71.40;24.47;;;;;;;-6.60;81.20;102842.05;1827435;78;25444;-47
2023/02/09 00:53:23;;;;;;;82.10;27.17;;;;;;;-6.65;81.23;102826.30;1827593;78;25621;-47
2023/02/09 00:55:50;;;;;;;65.75;24.55;;;;;;;-6.70;81.10;102828.01;1827914;78;25542;-48
2023/02/09 00:58:19;;;;;;;63.78;24.45;;;;;;;-6.74;81.33;102823.13;1827695;78;28362;-48
2023/02/09 01:00:47;;;;;;;53.30;17.98;;;;;;;-6.79;81.49;102822.23;1827486;78;25586;-47
2023/02/09 01:03:14;;;;;;;55.58;21.75;;;;;;;-6.83;81.69;102812.42;1827450;78;25441;-49
2023/02/09 01:05:42;;;;;;;70.97;24.63;;;;;;;-6.85;81.67;102813.53;1827460;78;26143;-45
2023/02/09 01:08:09;;;;;;;56.20;22.32;;;;;;;-6.87;82.07;102804.45;1827435;78;25429;-46
2023/02/09 01:10:37;;;;;;;61.98;23.00;;;;;;;-6.90;81.97;102811.29;1827391;78;27466;-46
2023/02/09 01:13:03;;;;;;;73.55;39.42;;;;;;;-6.95;81.97;102801.18;1827304;78;25586;-46
2023/02/09 01:15:30;;;;;;;123.15;100.27;;;;;;;-6.98;82.12;102795.31;1789030;80;25590;-47
2023/02/09 01:17:58;;;;;;;108.87;98.10;;;;;;;-7.01;82.24;102791.66;1821219;78;25503;-46
2023/02/09 01:20:27;;;;;;;87.90;78.02;;;;;;;-7.02;82.53;102792.13;1789130;80;25563;-47
2023/02/09 01:22:54;;;;;;;82.00;73.55;;;;;;;-7.03;82.68;102793.11;1821371;78;28254;-49
2023/02/09 01:25:20;;;;;;;111.17;97.53;;;;;;;-7.02;82.70;102791.30;1788846;80;25516;-45
2023/02/09 01:27:47;;;;;;;109.72;96.82;;;;;;;-7.00;82.90;102784.09;1821253;78;25540;-46
2023/02/09 01:30:14;;;;;;;103.83;92.67;;;;;;;-6.99;82.79;102780.52;1788951;80;25556;-46
2023/02/09 01:32:41;;;;;;;107.33;94.80;;;;;;;-7.00;82.91;102766.53;1821348;78;25386;-47
2023/02/09 01:35:09;;;;;;;81.37;71.83;;;;;;;-6.98;82.89;102771.64;1821459;78;26519;-47
2023/02/09 01:37:35;;;;;;;104.43;93.12;;;;;;;-6.95;83.03;102770.92;1821401;78;25587;-47
2023/02/09 01:40:05;;;;;;;108.17;96.40;;;;;;;-6.92;83.21;102760.59;1821416;78;25438;-46
2023/02/09 01:42:32;;;;;;;;;;;;;;;-6.90;83.32;102757.83;1791804;80;25510;-48
2023/02/09 01:45:04;;;;;;;100.73;90.27;;;;;;;-6.86;83.45;102753.50;1821545;78;25374;-46
2023/02/09 01:47:35;;;;;;;105.47;94.23;;;;;;;-6.86;83.45;102746.92;1783779;80;27569;-46
2023/02/09 01:50:03;;;;;;;110.22;96.05;;;;;;;-6.80;83.56;102742.91;1821492;78;25402;-46
2023/02/09 01:52:30;;;;;;;103.73;92.77;;;;;;;-6.77;83.48;102742.65;1789136;80;25522;-48
2023/02/09 01:55:01;;;;;;;99.53;89.87;;;;;;;-6.75;83.51;102728.86;1821396;78;27613;-46
2023/02/09 01:57:38;;;;;;;101.30;92.20;;;;;;;-6.70;83.50;102733.73;1789293;80;25635;-46
2023/02/09 02:00:17;;;;;;;107.57;96.00;;;;;;;-6.67;83.52;102725.57;1821495;78;27415;-46
2023/02/09 02:02:58;;;;;;;49.15;21.15;;;;;;;-6.62;83.54;102722.87;1821617;78;25377;-47
2023/02/09 02:05:27;;;;;;;104.55;92.90;;;;;;;-6.53;83.48;102718.59;1821501;78;25550;-46
2023/02/09 02:08:13;;;;;;;75.22;67.42;;;;;;;-6.53;83.48;102718.59;1824748;78;25549;-46
2023/02/09 02:10:41;;;;;;;102.00;92.17;;;;;;;-6.49;83.56;102720.46;1823801;78;25526;-47
2023/02/09 02:13:07;;;;;;;104.33;93.60;;;;;;;-6.48;83.40;102708.48;1821436;78;27384;-45
2023/02/09 02:15:58;;;;;;;99.50;88.97;;;;;;;-6.46;83.35;102699.12;1826550;78;25492;-46
2023/02/09 02:18:42;;;;;;;101.67;91.03;;;;;;;-6.43;83.40;102694.91;1825702;78;25364;-46
2023/02/09 02:21:47;;;;;;;98.53;89.47;;;;;;;-6.42;83.26;102699.19;1794477;80;26050;-47
2023/02/09 02:24:47;;;;;;;102.87;92.80;;;;;;;-6.39;83.30;102697.59;1827618;78;25543;-47
2023/02/09 02:27:35;;;;;;;105.83;95.03;;;;;;;-6.37;83.27;102685.12;1827535;78;27533;-46
2023/02/09 02:30:28;;;;;;;108.85;95.30;;;;;;;-6.36;83.23;102677.58;1813442;78;27293;-48
2023/02/09 02:33:17;;;;;;;102.27;91.90;;;;;;;-6.35;83.29;102673.98;1794834;80;25358;-47
2023/02/09 02:35:51;;;;;;;96.22;85.87;;;;;;;-6.32;83.25;102673.68;1827627;78;25554;-50
2023/02/09 02:38:44;;;;;;;111.15;93.30;;;;;;;-6.30;83.41;102666.50;1825966;78;25583;-47
2023/02/09 02:41:18;;;;;;;105.07;94.15;;;;;;;-6.27;83.37;102660.92;1826015;78;27470;-46
2023/02/09 02:44:02;;;;;;;97.35;76.17;;;;;;;-6.26;83.33;102653.38;1794880;80;25648;-47
2023/02/09 02:46:48;;;;;;;108.05;93.60;;;;;;;-6.23;83.42;102655.75;1826256;78;25536;-47
2023/02/09 02:49:32;;;;;;;103.97;92.82;;;;;;;-6.23;83.30;102654.89;1827516;78;25546;-47
2023/02/09 02:52:03;;;;;;;107.03;96.05;;;;;;;-6.21;83.27;102652.48;1792697;79;25383;-47
2023/02/09 02:54:44;;;;;;;101.18;90.53;;;;;;;-6.18;83.33;102643.45;1827486;78;27467;-45
2023/02/09 02:57:16;;;;;;;109.12;95.42;;;;;;;-6.13;83.25;102650.48;1794908;80;26065;-47
2023/02/09 03:00:00;;;;;;;102.53;91.17;;;;;;;-6.13;83.25;102650.48;1795007;80;25433;-47
2023/02/09 03:02:46;;;;;;;101.00;91.50;;;;;;;-6.10;83.21;102646.71;1825998;78;27725;-47
2023/02/09 03:05:16;;;;;;;71.95;56.13;;;;;;;-6.07;83.18;102648.58;1825848;78;25530;-47
2023/02/09 03:07:43;;;;;;;;;;;;;;;-6.06;83.14;102644.98;1800202;78;27172;-47
2023/02/09 03:10:37;;;;;;;83.15;70.40;;;;;;;-6.04;83.18;102646.98;1786240;80;25429;-49
2023/02/09 03:13:34;;;;;;;99.07;88.58;;;;;;;-6.04;83.08;102637.76;1775527;79;25464;-48
2023/02/09 03:16:28;;;;;;;58.42;40.48;;;;;;;-6.02;83.04;102631.86;1801540;79;27650;-47
2023/02/09 03:19:35;;;;;;;83.42;60.67;;;;;;;-6.01;82.84;102635.31;1801743;79;25574;-47
2023/02/09 03:22:11;;;;;;;93.42;83.60;;;;;;;-6.04;82.73;102627.22;1801691;79;27498;-47
2023/02/09 03:25:01;;;;;;;102.90;92.00;;;;;;;-6.05;82.62;102620.27;1800699;79;25603;-48
2023/02/09 03:27:40;;;;;;;91.53;83.63;;;;;;;-6.07;82.62;102608.23;1801748;79;25595;-49
2023/02/09 03:30:12;;;;;;;99.40;89.87;;;;;;;-6.07;82.56;102606.91;1801714;79;25663;-47
2023/02/09 03:32:44;;;;;;;103.10;91.80;;;;;;;-6.08;82.36;102617.95;1801744;79;25578;-47
2023/02/09 03:35:15;;;;;;;101.20;90.95;;;;;;;-6.06;82.40;102622.58;1801687;79;28258;-46
2023/02/09 03:37:45;;;;;;;60.25;30.48;;;;;;;-6.04;82.33;102621.95;1801656;79;25389;-46
2023/02/09 03:40:13;;;;;;;45.33;21.27;;;;;;;-5.99;82.55;102631.22;1801697;79;25434;-45
2023/02/09 03:42:39;;;;;;;100.40;89.87;;;;;;;-5.97;82.42;102627.98;1769952;79;25574;-47
2023/02/09 03:45:09;;;;;;;66.65;44.55;;;;;;;-5.97;82.51;102620.90;1801688;79;25401;-47
2023/02/09 03:47:36;;;;;;;98.33;89.47;;;;;;;-5.92;82.38;102623.08;1801698;79;27478;-47
2023/02/09 03:50:06;;;;;;;107.20;95.50;;;;;;;-5.93;82.28;102620.09;1801577;79;25590;-47
2023/02/09 03:52:33;;;;;;;69.97;40.50;;;;;;;-5.90;82.21;102621.95;1801710;79;25603;-47
2023/02/09 03:55:00;;;;;;;98.50;88.23;;;;;;;-5.88;82.01;102620.00;1801555;79;25477;-46
2023/02/09 03:57:28;;;;;;;103.25;92.75;;;;;;;-5.90;81.98;102618.49;1801696;79;25433;-46
2023/02/09 03:59:55;;;;;;;98.97;89.40;;;;;;;-5.89;81.90;102624.94;1801688;79;27402;-46
2023/02/09 04:02:22;;;;;;;103.93;93.00;;;;;;;-5.86;81.91;102628.59;1801562;79;25402;-46
2023/02/09 04:04:50;;;;;;;101.73;91.27;;;;;;;-5.88;81.85;102621.81;1801634;79;25535;-48
2023/02/09 04:07:18;;;;;;;106.55;95.30;;;;;;;-6.05;82.03;102533.31;1801613;79;25653;-46
2023/02/09 04:09:44;;;;;;;106.95;96.35;;;;;;;-5.88;81.67;102606.81;1801658;79;25574;-47
2023/02/09 04:12:10;;;;;;;106.10;95.60;;;;;;;-5.91;81.59;102608.41;1801621;79;27665;-47
2023/02/09 04:14:39;;;;;;;99.97;89.72;;;;;;;-5.92;81.69;102603.31;1801411;79;25396;-46
2023/02/09 04:17:05;;;;;;;105.12;93.97;;;;;;;-5.91;81.79;102610.23;1801604;79;25381;-47
2023/02/09 04:19:32;;;;;;;101.92;91.45;;;;;;;-5.93;81.70;102601.64;1801632;79;25568;-48
2023/02/09 04:21:59;;;;;;;100.27;90.23;;;;;;;-5.94;81.84;102598.65;1769830;79;25564;-46
2023/02/09 04:24:28;;;;;;;102.40;90.40;;;;;;;-5.97;81.60;102612.17;1801649;79;27465;-46
2023/02/09 04:26:55;;;;;;;101.83;91.23;;;;;;;-5.96;81.68;102613.81;1801539;79;25540;-46
2023/02/09 04:29:21;;;;;;;114.20;102.78;;;;;;;-5.99;81.65;102603.55;1801630;79;25600;-46
2023/02/09 04:31:47;;;;;;;107.50;95.92;;;;;;;-5.99;81.71;102610.14;1801657;79;25594;-46
2023/02/09 04:34:13;;;;;;;107.53;96.00;;;;;;;-5.97;81.78;102608.22;1801591;79;25618;-46
2023/02/09 04:36:39;;;;;;;102.87;92.27;;;;;;;-5.98;81.77;102608.67;1801561;79;27536;-46
2023/02/09 04:39:05;;;;;;;104.27;93.42;;;;;;;-5.97;81.81;102609.03;1801498;79;25613;-47
2023/02/09 04:41:32;;;;;;;57.05;21.52;;;;;;;-5.94;81.85;102610.51;1801571;79;25586;-46
2023/02/09 04:43:58;;;;;;;57.67;21.42;;;;;;;-5.93;81.79;102605.09;1801590;79;25496;-47
2023/02/09 04:46:25;;;;;;;48.48;21.07;;;;;;;-5.95;81.60;102609.69;1801557;79;25552;-47
2023/02/09 04:48:51;;;;;;;48.70;21.15;;;;;;;-5.99;81.71;102605.72;1801607;79;27463;-46
2023/02/09 04:51:18;;;;;;;58.87;22.23;;;;;;;-5.97;81.88;102609.53;1801504;79;25554;-47
2023/02/09 04:53:44;;;;;;;55.43;21.93;;;;;;;-5.99;81.69;102618.89;1801574;79;25418;-47
2023/02/09 04:56:17;;;;;;;65.92;25.32;;;;;;;-6.02;81.48;102616.05;1801546;79;27721;-47
2023/02/09 05:01:30;;;;;;;58.08;24.47;;;;;;;-6.10;81.20;102612.45;1801597;79;27482;-45
2023/02/09 05:03:56;;;;;;;66.75;25.68;;;;;;;-6.17;81.03;102606.92;1801521;79;25854;-45
2023/02/09 05:06:23;;;;;;;67.65;26.68;;;;;;;-6.26;81.11;102605.97;1801606;79;25394;-46
2023/02/09 05:08:50;;;;;;;66.65;23.40;;;;;;;-6.30;81.27;102596.69;1801578;79;25470;-45
2023/02/09 05:11:16;;;;;;;62.35;21.97;;;;;;;-6.34;81.19;102593.97;1801643;79;25659;-46
2023/02/09 05:13:45;;;;;;;58.05;22.40;;;;;;;-6.41;81.24;102591.06;1770164;79;27648;-46
2023/02/09 05:16:18;;;;;;;85.50;60.52;;;;;;;-6.45;81.32;102594.97;1794617;79;25567;-46
2023/02/09 05:18:49;;;;;;;103.32;93.03;;;;;;;-6.49;81.31;102590.93;1791823;80;25409;-47
2023/02/09 05:21:17;;;;;;;104.97;94.10;;;;;;;-6.55;81.34;102586.70;1791852;80;25587;-46
2023/02/09 05:23:43;;;;;;;69.95;63.50;;;;;;;-6.61;81.39;102587.61;1792048;80;25572;-48
2023/02/09 05:26:10;;;;;;;104.80;94.50;;;;;;;-6.64;81.42;102583.11;1791712;80;27506;-48
2023/02/09 05:28:37;;;;;;;104.33;93.10;;;;;;;-6.71;81.49;102586.77;1764998;80;25625;-47
2023/02/09 05:31:05;;;;;;;106.22;95.05;;;;;;;-6.73;81.47;102590.53;1791771;80;25564;-48
2023/02/09 05:33:31;;;;;;;112.88;102.07;;;;;;;-6.77;81.35;102588.17;1791692;80;25527;-46
2023/02/09 05:35:57;;;;;;;104.47;93.87;;;;;;;-6.84;81.52;102584.44;1791769;79;25657;-46
2023/02/09 05:38:24;;;;;;;107.03;96.22;;;;;;;-6.88;81.63;102584.34;1791714;80;27555;-48
2023/02/09 05:40:52;;;;;;;107.17;96.15;;;;;;;-6.90;81.81;102589.41;1791629;80;25907;-47
2023/02/09 05:43:18;;;;;;;108.07;96.97;;;;;;;-6.93;81.97;102583.09;1764881;80;25473;-47
2023/02/09 05:45:46;;;;;;;108.23;96.97;;;;;;;-6.95;81.98;102585.40;1791715;80;25517;-47
2023/02/09 05:48:13;;;;;;;112.57;100.23;;;;;;;-6.96;82.00;102586.85;1791800;80;25631;-46
2023/02/09 05:50:40;;;;;;;60.95;22.98;;;;;;;-6.99;81.85;102579.22;1791780;80;27475;-47
2023/02/09 05:53:08;;;;;;;51.30;24.63;;;;;;;-6.99;81.83;102581.36;1791697;80;25628;-46
2023/02/09 05:55:35;;;;;;;106.65;95.55;;;;;;;-7.02;82.09;102582.13;1791711;80;25563;-45
2023/02/09 05:58:02;;;;;;;108.47;96.97;;;;;;;-7.08;82.01;102580.02;1791672;80;25586;-47
2023/02/09 06:00:30;;;;;;;104.20;91.10;;;;;;;-7.13;82.01;102569.93;1791853;79;25395;-49
2023/02/09 06:02:58;;;;;;;72.40;64.67;;;;;;;-7.15;82.21;102570.52;1788011;80;27504;-48
2023/02/09 06:05:28;;;;;;;111.05;96.55;;;;;;;-7.13;82.25;102573.88;1791667;80;25559;-47
2023/02/09 06:07:56;;;;;;;111.75;99.47;;;;;;;-7.17;82.16;102573.31;1791800;80;25552;-48
2023/02/09 06:10:26;;;;;;;108.15;96.42;;;;;;;-7.21;82.10;102573.72;1791696;80;26007;-47
2023/02/09 06:12:52;;;;;;;105.43;94.20;;;;;;;-7.25;82.11;102572.30;1791737;80;25556;-47
2023/02/09 06:15:18;;;;;;;120.53;99.17;;;;;;;-7.28;82.18;102572.60;1790523;79;27538;-47
2023/02/09 06:17:45;;;;;;;107.15;95.85;;;;;;;-7.30;82.20;102576.67;1786359;80;25643;-48
2023/02/09 06:20:12;;;;;;;106.43;95.05;;;;;;;-7.36;82.16;102566.19;1786529;80;25416;-48
2023/02/09 06:22:40;;;;;;;112.12;96.37;;;;;;;-7.38;82.06;102576.02;1786486;80;25575;-48
2023/02/09 06:25:08;;;;;;;104.90;93.52;;;;;;;-7.41;82.36;102571.52;1786646;80;25529;-47
2023/02/09 06:27:36;;;;;;;100.72;90.83;;;;;;;-7.44;82.54;102571.78;1786625;80;27469;-47
2023/02/09 06:30:06;;;;;;;103.38;93.05;;;;;;;-7.47;82.74;102569.41;1786563;80;25612;-50
2023/02/09 06:32:33;;;;;;;104.12;93.45;;;;;;;-7.52;82.71;102566.71;1786637;80;25657;-46
2023/02/09 06:34:59;;;;;;;105.47;94.25;;;;;;;-7.54;83.06;102568.64;1759603;80;25525;-47
2023/02/09 06:37:27;;;;;;;56.98;23.07;;;;;;;-7.56;83.13;102563.16;1786670;80;25472;-47
2023/02/09 06:39:53;;;;;;;58.58;21.42;;;;;;;-7.53;83.14;102570.29;1786682;80;27493;-47
2023/02/09 06:42:19;;;;;;;64.53;24.07;;;;;;;-7.53;83.25;102577.36;1786581;80;25809;-47
2023/02/09 06:44:46;;;;;;;53.15;22.52;;;;;;;-7.53;83.23;102574.73;1786579;80;25596;-47
2023/02/09 06:47:13;;;;;;;54.58;19.75;;;;;;;-7.55;83.45;102572.23;1786582;80;25578;-49
2023/02/09 06:49:39;;;;;;;61.23;21.87;;;;;;;-7.55;83.52;102563.03;1786604;80;25409;-47
2023/02/09 06:52:05;;;;;;;59.15;22.40;;;;;;;-7.54;83.59;102566.51;1786644;80;27492;-46
2023/02/09 06:54:32;;;;;;;64.35;21.50;;;;;;;-7.53;83.74;102574.23;1786496;80;25457;-46
2023/02/09 06:56:59;;;;;;;56.42;23.12;;;;;;;-7.51;83.88;102568.84;1786709;80;25391;-46
2023/02/09 06:59:27;;;;;;;55.08;20.92;;;;;;;-7.48;84.15;102564.64;1786594;80;25631;-47
2023/02/09 07:01:54;;;;;;;50.58;19.67;;;;;;;-7.38;84.60;102565.50;1759724;80;25589;-46
2023/02/09 07:04:21;;;;;;;56.92;21.57;;;;;;;-7.22;84.73;102570.27;1786599;80;27882;-48
2023/02/09 07:06:47;;;;;;;59.67;23.10;;;;;;;-7.09;84.96;102563.41;1786549;80;25195;-47
2023/02/09 07:09:14;;;;;;;61.95;21.93;;;;;;;-6.99;84.79;102566.07;1786606;80;25519;-47
2023/02/09 07:11:40;;;;;;;61.90;22.87;;;;;;;-6.95;84.44;102560.41;1786615;80;25648;-47
2023/02/09 07:14:07;;;;;;;61.25;20.95;;;;;;;-6.85;84.47;102562.20;1786617;80;25601;-47
2023/02/09 07:16:34;;;;;;;60.25;20.57;;;;;;;-6.75;84.30;102569.61;1795129;79;28093;-48
2023/02/09 07:19:00;;;;;;;46.92;18.52;;;;;;;-6.66;84.16;102568.77;1801637;79;25728;-51
2023/02/09 07:21:27;;;;;;;57.73;22.50;;;;;;;-6.58;83.98;102569.40;1801739;79;25417;-48
2023/02/09 07:23:54;;;;;;;55.08;22.13;;;;;;;-6.52;83.69;102570.63;1801683;79;25623;-47
2023/02/09 07:26:22;;;;;;;55.65;21.15;;;;;;;-6.40;83.78;102574.31;1801775;79;25394;-47
2023/02/09 07:28:48;;;;;;;57.85;20.95;;;;;;;-6.27;83.77;102575.31;1801580;79;27484;-51
2023/02/09 07:31:15;;;;;;;54.45;22.25;;;;;;;-6.11;84.02;102571.26;1800104;79;25666;-46
2023/02/09 07:33:43;;;;;;;62.03;21.15;;;;;;;-5.88;84.25;102566.45;1768963;79;26018;-48
2023/02/09 07:36:15;;;;;;;58.65;25.17;;;;;;;-5.60;84.46;102563.38;1801798;79;26313;-49
2023/02/09 07:38:44;;;;;;;64.03;22.55;;;;;;;-5.34;83.62;102569.28;1801726;79;25630;-47
2023/02/09 07:41:19;;;;;;;65.83;29.25;;;;;;;-5.22;83.37;102557.53;1801694;79;27478;-47
2023/02/09 07:43:46;;;;;;;56.68;20.00;;;;;;;-4.92;83.35;102551.55;1801778;79;25656;-49
2023/02/09 07:46:17;;;;;;;60.85;23.70;;;;;;;-4.63;83.66;102559.26;1800424;79;25709;-47
2023/02/09 07:48:44;;;;;;;63.85;24.67;;;;;;;-4.28;82.90;102551.42;1800646;79;25564;-48
2023/02/09 07:51:15;;;;;;;63.00;24.35;;;;;;;-4.01;82.54;102550.44;1801817;79;25427;-48
2023/02/09 07:53:42;;;;;;;62.05;24.52;;;;;;;-3.69;81.42;102547.63;1801715;79;27526;-47
2023/02/09 07:56:09;;;;;;;59.33;24.98;;;;;;;-3.22;81.36;102559.86;1801567;79;26126;-47
2023/02/09 07:58:36;;;;;;;60.12;25.40;;;;;;;-3.09;80.62;102544.82;1801702;79;25450;-47
2023/02/09 08:01:06;;;;;;;67.87;25.95;;;;;;;-2.77;78.31;102539.23;1801637;79;25445;-49
2023/02/09 08:03:37;;;;;;;60.67;25.88;;;;;;;-2.45;79.75;102545.53;1801748;79;25631;-47
2023/02/09 08:06:29;;;;;;;57.10;24.32;;;;;;;-2.22;77.78;102548.81;1801693;79;27507;-47
2023/02/09 08:08:55;;;;;;;62.80;24.23;;;;;;;-1.90;77.92;102538.63;1801606;79;27328;-48
2023/02/09 08:11:30;;;;;;;60.40;22.73;;;;;;;-1.45;79.02;102539.75;1801105;79;25386;-48
2023/02/09 08:13:58;;;;;;;60.67;25.72;;;;;;;-0.98;80.08;102545.46;1801655;79;25561;-47
2023/02/09 08:16:28;;;;;;;70.35;31.10;;;;;;;-0.58;77.74;102551.48;1801547;79;25606;-47
2023/02/09 08:19:00;;;;;;;66.53;27.85;;;;;;;-0.28;77.23;102547.55;1801710;79;27020;-51
2023/02/09 08:21:32;;;;;;;62.98;25.95;;;;;;;0.09;76.22;102540.52;1799757;79;25470;-49
2023/02/09 08:23:59;;;;;;;61.73;26.80;;;;;;;0.44;74.76;102539.42;1801709;79;25456;-47
2023/02/09 08:26:25;;;;;;;66.25;29.05;;;;;;;0.92;75.09;102533.12;1801593;79;25617;-48
2023/02/09 08:28:53;;;;;;;77.25;52.67;;;;;;;1.04;73.32;102535.27;1801663;79;25554;-47
2023/02/09 08:31:25;;;;;;;68.22;27.77;;;;;;;1.22;71.60;102537.49;1801649;79;28094;-48
2023/02/09 08:33:50;;;;;;;85.55;64.10;;;;;;;1.35;70.35;102532.28;1800256;79;27395;-48
2023/02/09 08:36:19;;;;;;;72.00;46.30;;;;;;;1.54;69.80;102524.64;1801634;79;25441;-48
2023/02/09 08:38:47;;;;;;;66.95;31.85;;;;;;;1.62;68.71;102521.83;1770239;79;26015;-49
2023/02/09 08:41:16;;;;;;;75.95;31.52;;;;;;;1.94;69.48;102519.55;1801652;79;25208;-50
2023/02/09 08:43:48;;;;;;;62.67;27.90;;;;;;;2.35;68.91;102513.39;1801729;79;27541;-48
2023/02/09 08:46:15;;;;;;;59.48;26.70;;;;;;;3.02;71.01;102517.60;1801633;79;25712;-51
2023/02/09 08:48:44;;;;;;;63.25;27.42;;;;;;;3.62;68.72;102507.71;1801689;79;25626;-48
2023/02/09 08:51:14;;;;;;;63.05;30.90;;;;;;;3.98;66.74;102517.64;1801747;79;25475;-48
2023/02/09 08:53:42;;;;;;;62.35;29.15;;;;;;;3.92;63.13;102513.43;1801762;79;25647;-47
2023/02/09 08:56:08;;;;;;;60.23;30.45;;;;;;;3.80;61.91;102513.77;1801655;79;27509;-49
2023/02/09 08:58:35;;;;;;;60.12;29.37;;;;;;;4.02;62.25;102515.67;1801643;79;25569;-51
2023/02/09 09:01:02;;;;;;;59.93;27.42;;;;;;;4.14;61.43;102512.33;1801730;79;25578;-49
2023/02/09 09:03:31;;;;;;;64.80;27.87;;;;;;;4.10;61.94;102520.81;1801738;79;25608;-50
2023/02/09 09:06:02;;;;;;;56.10;27.60;;;;;;;4.13;59.37;102511.52;1745384;79;25496;-51
2023/02/09 09:08:31;;;;;;;57.75;27.48;;;;;;;4.21;60.91;102502.44;1801694;79;27432;-51
2023/02/09 09:10:58;;;;;;;61.53;27.90;;;;;;;4.69;61.92;102501.98;1801747;79;25661;-50
2023/02/09 09:13:25;;;;;;;62.15;31.12;;;;;;;5.11;60.96;102499.66;1801681;79;25412;-49
2023/02/09 09:15:56;;;;;;;60.63;28.60;;;;;;;5.34;59.83;102501.72;1801566;79;25547;-51
2023/02/09 09:18:24;;;;;;;60.92;28.30;;;;;;;5.50;58.72;102502.20;1801715;79;25441;-50
2023/02/09 09:20:54;;;;;;;61.10;28.95;;;;;;;5.68;57.42;102493.38;1801645;79;27477;-50
2023/02/09 09:23:22;;;;;;;58.33;30.88;;;;;;;5.47;55.64;102500.80;1801608;79;25197;-51
2023/02/09 09:25:48;;;;;;;65.80;29.48;;;;;;;5.33;55.97;102494.73;1770172;79;25429;-53
2023/02/09 09:28:15;;;;;;;61.00;29.18;;;;;;;5.09;54.77;102501.74;1801659;79;25703;-49
2023/02/09 09:30:42;;;;;;;62.85;30.62;;;;;;;5.01;55.87;102499.32;1770246;79;25468;-48
2023/02/09 09:33:09;;;;;;;60.45;29.12;;;;;;;5.06;56.24;102498.14;1801703;79;27417;-49
2023/02/09 09:35:35;;;;;;;62.05;31.97;;;;;;;5.20;55.58;102497.52;1801530;79;25527;-49
2023/02/09 09:38:03;;;;;;;56.80;27.62;;;;;;;5.27;55.04;102507.67;1801677;79;25591;-50
2023/02/09 09:40:34;;;;;;;64.25;29.42;;;;;;;5.35;55.16;102491.30;1801694;79;26147;-49
2023/02/09 09:43:10;;;;;;;62.70;28.62;;;;;;;5.50;54.29;102496.84;1801700;79;25504;-47
2023/02/09 09:45:39;;;;;;;58.50;27.02;;;;;;;5.61;56.03;102501.49;1800991;79;27501;-49
2023/02/09 09:48:12;;;;;;;57.40;29.33;;;;;;;6.06;55.38;102501.27;1801796;79;25610;-48
2023/02/09 09:50:43;;;;;;;61.02;31.80;;;;;;;6.63;55.56;102492.89;1800264;79;25752;-48
2023/02/09 09:53:32;;;;;;;71.20;36.77;;;;;;;6.73;52.82;102490.46;1801569;79;25537;-50
2023/02/09 09:56:04;;;;;;;;;;;;;;;6.76;51.49;102480.28;1804388;79;25611;-49
2023/02/09 10:22:58;;;;;;;57.95;28.70;;;;;;;8.76;47.82;102432.84;1738768;76;27320;-46
2023/02/09 10:25:34;;;;;;;49.83;28.47;;;;;;;9.19;46.15;102421.64;1787183;80;27472;-45
2023/02/09 10:28:05;;;;;;;59.93;29.40;;;;;;;9.27;47.11;102425.28;1786425;80;25673;-45
2023/02/09 10:30:28;;;;;;;49.83;26.50;;;;;;;9.47;44.77;102427.45;1786046;80;25621;-48
2023/02/09 10:32:58;;;;;;;49.67;26.07;;;;;;;9.26;45.92;102409.62;1781911;80;26076;-47
2023/02/09 10:35:33;;;;;;;49.35;26.50;;;;;;;9.60;46.48;102406.80;1819143;78;25511;-46
2023/02/09 10:38:03;;;;;;;49.15;26.20;;;;;;;9.88;45.37;102398.25;1818467;78;28163;-47
2023/02/09 10:40:31;;;;;;;;;;;;;;;10.04;44.58;102396.52;1822633;78;25897;-46
2023/02/09 10:43:03;;;;;;;51.00;24.20;;;;;;;9.98;42.70;102386.20;1820361;78;25517;-45
2023/02/09 10:45:42;;;;;;;53.33;25.37;;;;;;;9.98;44.11;102386.20;1819128;78;25693;-46
2023/02/09 10:48:17;;;;;;;44.03;23.00;;;;;;;10.33;43.90;102373.32;1820080;78;25370;-49
2023/02/09 10:51:01;;;;;;;45.65;22.90;;;;;;;10.82;45.54;102372.64;1820064;78;27507;-48
2023/02/09 10:53:36;;;;;;;41.70;21.33;;;;;;;10.90;43.07;102367.30;1819871;78;25609;-48
2023/02/09 10:56:07;;;;;;;45.78;26.55;;;;;;;10.87;45.44;102359.69;1820017;78;25498;-45
2023/02/09 10:58:36;;;;;;;45.45;21.85;;;;;;;11.01;43.91;102350.56;1818422;78;26228;-46
2023/02/09 11:01:16;;;;;;;38.45;21.10;;;;;;;10.94;41.98;102345.37;1820157;78;25436;-44
2023/02/09 11:03:59;;;;;;;36.95;23.32;;;;;;;11.10;41.15;102349.53;1815646;78;27487;-45
2023/02/09 11:06:28;;;;;;;38.05;21.10;;;;;;;10.93;40.82;102339.70;1817938;78;25289;-44
2023/02/09 11:09:08;;;;;;;36.73;21.12;;;;;;;10.60;39.35;102343.52;1820222;78;25383;-49
2023/02/09 11:11:39;;;;;;;38.45;20.82;;;;;;;10.28;37.50;102329.42;1819469;78;25557;-50
2023/02/09 11:14:18;;;;;;;36.55;19.92;;;;;;;9.97;39.23;102330.48;1788351;78;25618;-43
2023/02/09 11:17:14;;;;;;;41.02;21.65;;;;;;;9.37;40.40;102322.79;1820169;78;27486;-48
2023/02/09 11:20:22;;;;;;;45.15;22.80;;;;;;;9.18;40.56;102315.53;1767546;81;25802;-44
2023/02/09 11:23:00;;;;;;;39.80;20.70;;;;;;;8.77;39.65;102310.38;1762975;81;25509;-44
2023/02/09 11:25:32;;;;;;;40.60;20.75;;;;;;;8.45;39.16;102307.45;1760143;81;25651;-45
2023/02/09 11:28:29;;;;;;;41.13;22.02;;;;;;;8.35;41.25;102295.92;1759885;81;25169;-44
2023/02/09 11:45:47;;;;;;;42.48;21.20;;;;;;;6.92;41.77;102303.42;1693115;78;27288;-45
2023/02/09 11:48:30;;;;;;;42.00;21.40;;;;;;;6.69;42.26;102291.62;1692794;83;25650;-44
2023/02/09 11:51:04;;;;;;;39.88;21.33;;;;;;;6.91;40.97;102294.53;1692622;84;25606;-45
2023/02/09 11:53:39;;;;;;;36.38;20.27;;;;;;;6.97;42.52;102277.97;1727491;83;25629;-44
2023/02/09 11:56:13;;;;;;;39.30;20.80;;;;;;;7.32;42.31;102270.37;1729126;80;25625;-45
2023/02/09 11:58:50;;;;;;;42.10;25.10;;;;;;;7.13;40.95;102266.19;1741130;82;27470;-43
2023/02/09 12:01:49;;;;;;;37.80;19.27;;;;;;;7.02;42.19;102264.63;1741101;82;25466;-44
2023/02/09 12:04:56;;;;;;;37.28;19.50;;;;;;;7.03;42.45;102254.16;1741033;81;25559;-47
2023/02/09 12:07:42;;;;;;;41.75;20.65;;;;;;;7.26;42.54;102247.08;1741033;81;25524;-44
2023/02/09 12:10:29;;;;;;;39.58;19.87;;;;;;;7.54;42.00;102235.49;1741093;82;25426;-44